sensor_id;sensor_type;location;lat;lon;timestamp;temperature;humidity
13346;DHT22;6742;48.036;15.780;2022-10-16T00:01:16;13.50;99.90
13346;DHT22;6742;48.036;15.780;2022-10-16T00:03:44;13.40;99.90
13346;DHT22;6742;48.036;15.780;2022-10-16T00:06:12;13.40;99.90
13346;DHT22;6742;48.036;15.780;2022-10-16T00:08:40;13.40;99.90
13346;DHT22;6742;48.036;15.780;2022-10-16T00:11:10;13.30;99.90
13346;DHT22;6742;48.036;15.780;2022-10-16T00:13:39;13.30;99.90
13346;DHT22;6742;48.036;15.780;2022-10-16T00:16:08;13.30;99.90
13346;DHT22;6742;48.036;15.780;2022-10-16T00:18:35;13.30;99.90
13346;DHT22;6742;48.036;15.780;2022-10-16T00:21:04;13.30;99.90
13346;DHT22;6742;48.036;15.780;2022-10-16T00:23:35;13.30;99.90
13346;DHT22;6742;48.036;15.780;2022-10-16T00:26:04;13.30;99.90
13346;DHT22;6742;48.036;15.780;2022-10-16T00:28:33;13.30;99.90
13346;DHT22;6742;48.036;15.780;2022-10-16T00:31:03;13.30;99.90
13346;DHT22;6742;48.036;15.780;2022-10-16T00:33:30;13.30;99.90
13346;DHT22;6742;48.036;15.780;2022-10-16T00:35:57;13.30;99.90
13346;DHT22;6742;48.036;15.780;2022-10-16T00:38:27;13.30;99.90
13346;DHT22;6742;48.036;15.780;2022-10-16T00:40:55;13.40;99.90
13346;DHT22;6742;48.036;15.780;2022-10-16T00:43:39;13.40;99.90
13346;DHT22;6742;48.036;15.780;2022-10-16T00:46:13;13.50;99.90
13346;DHT22;6742;48.036;15.780;2022-10-16T00:48:43;13.50;99.90
13346;DHT22;6742;48.036;15.780;2022-10-16T00:51:11;13.40;99.90
13346;DHT22;6742;48.036;15.780;2022-10-16T00:53:38;13.50;99.90
13346;DHT22;6742;48.036;15.780;2022-10-16T00:56:06;13.60;99.90
13346;DHT22;6742;48.036;15.780;2022-10-16T00:58:33;13.70;99.90
13346;DHT22;6742;48.036;15.780;2022-10-16T01:01:01;13.70;99.90
13346;DHT22;6742;48.036;15.780;2022-10-16T01:03:31;13.60;99.90
13346;DHT22;6742;48.036;15.780;2022-10-16T01:06:09;13.50;99.90
13346;DHT22;6742;48.036;15.780;2022-10-16T01:08:49;13.50;99.90
13346;DHT22;6742;48.036;15.780;2022-10-16T01:11:23;13.40;99.90
13346;DHT22;6742;48.036;15.780;2022-10-16T01:13:55;13.40;99.90
13346;DHT22;6742;48.036;15.780;2022-10-16T01:16:29;13.30;99.90
13346;DHT22;6742;48.036;15.780;2022-10-16T01:19:02;13.30;99.90
13346;DHT22;6742;48.036;15.780;2022-10-16T01:21:36;13.20;99.90
13346;DHT22;6742;48.036;15.780;2022-10-16T01:24:09;13.20;99.90
13346;DHT22;6742;48.036;15.780;2022-10-16T01:26:50;13.20;99.90
13346;DHT22;6742;48.036;15.780;2022-10-16T01:29:24;13.20;99.90
13346;DHT22;6742;48.036;15.780;2022-10-16T01:31:59;13.20;99.90
13346;DHT22;6742;48.036;15.780;2022-10-16T01:34:33;13.10;99.90
13346;DHT22;6742;48.036;15.780;2022-10-16T01:37:05;13.10;99.90
13346;DHT22;6742;48.036;15.780;2022-10-16T01:39:35;13.10;99.90
13346;DHT22;6742;48.036;15.780;2022-10-16T01:42:09;13.10;99.90
13346;DHT22;6742;48.036;15.780;2022-10-16T01:44:39;13.10;99.90
13346;DHT22;6742;48.036;15.780;2022-10-16T01:47:09;13.10;99.90
13346;DHT22;6742;48.036;15.780;2022-10-16T01:49:38;13.00;99.90
13346;DHT22;6742;48.036;15.780;2022-10-16T01:52:12;13.00;99.90
13346;DHT22;6742;48.036;15.780;2022-10-16T01:54:43;13.00;99.90
13346;DHT22;6742;48.036;15.780;2022-10-16T01:57:13;13.00;99.90
13346;DHT22;6742;48.036;15.780;2022-10-16T01:59:45;13.00;99.90
13346;DHT22;6742;48.036;15.780;2022-10-16T02:02:13;13.00;99.90
13346;DHT22;6742;48.036;15.780;2022-10-16T02:04:43;13.00;99.90
13346;DHT22;6742;48.036;15.780;2022-10-16T02:07:11;13.00;99.90
13346;DHT22;6742;48.036;15.780;2022-10-16T02:09:39;13.00;99.90
13346;DHT22;6742;48.036;15.780;2022-10-16T02:12:09;13.00;99.90
13346;DHT22;6742;48.036;15.780;2022-10-16T02:14:39;13.00;99.90
13346;DHT22;6742;48.036;15.780;2022-10-16T02:17:13;13.00;99.90
13346;DHT22;6742;48.036;15.780;2022-10-16T02:19:40;13.00;99.90
13346;DHT22;6742;48.036;15.780;2022-10-16T02:22:10;13.00;99.90
13346;DHT22;6742;48.036;15.780;2022-10-16T02:24:43;13.00;99.90
13346;DHT22;6742;48.036;15.780;2022-10-16T02:27:19;13.00;99.90
13346;DHT22;6742;48.036;15.780;2022-10-16T02:29:55;12.90;99.90
13346;DHT22;6742;48.036;15.780;2022-10-16T02:32:30;12.90;99.90
13346;DHT22;6742;48.036;15.780;2022-10-16T02:34:58;12.90;99.90
13346;DHT22;6742;48.036;15.780;2022-10-16T02:37:27;12.90;99.90
13346;DHT22;6742;48.036;15.780;2022-10-16T02:39:56;12.90;99.90
13346;DHT22;6742;48.036;15.780;2022-10-16T02:42:28;12.90;99.90
13346;DHT22;6742;48.036;15.780;2022-10-16T02:44:55;12.90;99.90
13346;DHT22;6742;48.036;15.780;2022-10-16T02:47:22;12.90;99.90
13346;DHT22;6742;48.036;15.780;2022-10-16T02:49:51;12.90;99.90
13346;DHT22;6742;48.036;15.780;2022-10-16T02:52:17;12.90;99.90
13346;DHT22;6742;48.036;15.780;2022-10-16T02:54:47;12.80;99.90
13346;DHT22;6742;48.036;15.780;2022-10-16T02:57:14;12.80;99.90
13346;DHT22;6742;48.036;15.780;2022-10-16T02:59:41;12.80;99.90
13346;DHT22;6742;48.036;15.780;2022-10-16T03:02:08;12.80;99.90
13346;DHT22;6742;48.036;15.780;2022-10-16T03:04:35;12.80;99.90
13346;DHT22;6742;48.036;15.780;2022-10-16T03:07:04;12.80;99.90
13346;DHT22;6742;48.036;15.780;2022-10-16T03:09:31;12.80;99.90
13346;DHT22;6742;48.036;15.780;2022-10-16T03:11:58;12.80;99.90
13346;DHT22;6742;48.036;15.780;2022-10-16T03:14:25;12.80;99.90
13346;DHT22;6742;48.036;15.780;2022-10-16T03:16:52;12.80;99.90
13346;DHT22;6742;48.036;15.780;2022-10-16T03:19:18;12.80;99.90
13346;DHT22;6742;48.036;15.780;2022-10-16T03:21:46;12.80;99.90
13346;DHT22;6742;48.036;15.780;2022-10-16T03:24:14;12.80;99.90
13346;DHT22;6742;48.036;15.780;2022-10-16T03:26:41;12.80;99.90
13346;DHT22;6742;48.036;15.780;2022-10-16T03:29:08;12.80;99.90
13346;DHT22;6742;48.036;15.780;2022-10-16T03:31:35;12.70;99.90
13346;DHT22;6742;48.036;15.780;2022-10-16T03:34:02;12.70;99.90
13346;DHT22;6742;48.036;15.780;2022-10-16T03:36:29;12.80;99.90
13346;DHT22;6742;48.036;15.780;2022-10-16T03:38:59;12.70;99.90
13346;DHT22;6742;48.036;15.780;2022-10-16T03:41:28;12.80;99.90
13346;DHT22;6742;48.036;15.780;2022-10-16T03:43:54;12.70;99.90
13346;DHT22;6742;48.036;15.780;2022-10-16T03:46:21;12.70;99.90
13346;DHT22;6742;48.036;15.780;2022-10-16T03:48:48;12.70;99.90
13346;DHT22;6742;48.036;15.780;2022-10-16T03:51:18;12.70;99.90
13346;DHT22;6742;48.036;15.780;2022-10-16T03:53:45;12.70;99.90
13346;DHT22;6742;48.036;15.780;2022-10-16T03:56:12;12.70;99.90
13346;DHT22;6742;48.036;15.780;2022-10-16T03:58:41;12.70;99.90
13346;DHT22;6742;48.036;15.780;2022-10-16T04:01:10;12.70;99.90
13346;DHT22;6742;48.036;15.780;2022-10-16T04:03:37;12.70;99.90
13346;DHT22;6742;48.036;15.780;2022-10-16T04:06:04;12.70;99.90
13346;DHT22;6742;48.036;15.780;2022-10-16T04:08:31;12.70;99.90
13346;DHT22;6742;48.036;15.780;2022-10-16T04:11:00;12.70;99.90
13346;DHT22;6742;48.036;15.780;2022-10-16T04:13:30;12.70;99.90
13346;DHT22;6742;48.036;15.780;2022-10-16T04:15:58;12.70;99.90
13346;DHT22;6742;48.036;15.780;2022-10-16T04:18:25;12.70;99.90
13346;DHT22;6742;48.036;15.780;2022-10-16T04:20:52;12.70;99.90
13346;DHT22;6742;48.036;15.780;2022-10-16T04:23:20;12.70;99.90
13346;DHT22;6742;48.036;15.780;2022-10-16T04:25:48;12.60;99.90
13346;DHT22;6742;48.036;15.780;2022-10-16T04:28:15;12.60;99.90
13346;DHT22;6742;48.036;15.780;2022-10-16T04:30:42;12.60;99.90
13346;DHT22;6742;48.036;15.780;2022-10-16T04:33:10;12.70;99.90
13346;DHT22;6742;48.036;15.780;2022-10-16T04:35:38;12.60;99.90
13346;DHT22;6742;48.036;15.780;2022-10-16T04:38:05;12.60;99.90
13346;DHT22;6742;48.036;15.780;2022-10-16T04:40:32;12.60;99.90
13346;DHT22;6742;48.036;15.780;2022-10-16T04:43:01;12.60;99.90
13346;DHT22;6742;48.036;15.780;2022-10-16T04:45:28;12.60;99.90
13346;DHT22;6742;48.036;15.780;2022-10-16T04:48:03;12.60;99.90
13346;DHT22;6742;48.036;15.780;2022-10-16T04:50:31;12.60;99.90
13346;DHT22;6742;48.036;15.780;2022-10-16T04:52:58;12.60;99.90
13346;DHT22;6742;48.036;15.780;2022-10-16T04:55:25;12.60;99.90
13346;DHT22;6742;48.036;15.780;2022-10-16T04:57:52;12.60;99.90
13346;DHT22;6742;48.036;15.780;2022-10-16T05:00:22;12.60;99.90
13346;DHT22;6742;48.036;15.780;2022-10-16T05:02:49;12.50;99.90
13346;DHT22;6742;48.036;15.780;2022-10-16T05:05:16;12.50;99.90
13346;DHT22;6742;48.036;15.780;2022-10-16T05:07:46;12.50;99.90
13346;DHT22;6742;48.036;15.780;2022-10-16T05:10:13;12.50;99.90
13346;DHT22;6742;48.036;15.780;2022-10-16T05:12:40;12.50;99.90
13346;DHT22;6742;48.036;15.780;2022-10-16T05:15:08;12.50;99.90
13346;DHT22;6742;48.036;15.780;2022-10-16T05:17:35;12.50;99.90
13346;DHT22;6742;48.036;15.780;2022-10-16T05:20:03;12.50;99.90
13346;DHT22;6742;48.036;15.780;2022-10-16T05:22:30;12.50;99.90
13346;DHT22;6742;48.036;15.780;2022-10-16T05:24:58;12.50;99.90
13346;DHT22;6742;48.036;15.780;2022-10-16T05:27:25;12.40;99.90
13346;DHT22;6742;48.036;15.780;2022-10-16T05:29:52;12.50;99.90
13346;DHT22;6742;48.036;15.780;2022-10-16T05:32:19;12.40;99.90
13346;DHT22;6742;48.036;15.780;2022-10-16T05:34:46;12.50;99.90
13346;DHT22;6742;48.036;15.780;2022-10-16T05:37:13;12.50;99.90
13346;DHT22;6742;48.036;15.780;2022-10-16T05:39:40;12.40;99.90
13346;DHT22;6742;48.036;15.780;2022-10-16T05:42:08;12.40;99.90
13346;DHT22;6742;48.036;15.780;2022-10-16T05:44:35;12.40;99.90
13346;DHT22;6742;48.036;15.780;2022-10-16T05:47:02;12.40;99.90
13346;DHT22;6742;48.036;15.780;2022-10-16T05:49:29;12.40;99.90
13346;DHT22;6742;48.036;15.780;2022-10-16T05:51:56;12.40;99.90
13346;DHT22;6742;48.036;15.780;2022-10-16T05:54:22;12.40;99.90
13346;DHT22;6742;48.036;15.780;2022-10-16T05:56:49;12.40;99.90
13346;DHT22;6742;48.036;15.780;2022-10-16T05:59:18;12.40;99.90
13346;DHT22;6742;48.036;15.780;2022-10-16T06:01:44;12.40;99.90
13346;DHT22;6742;48.036;15.780;2022-10-16T06:04:11;12.50;99.90
13346;DHT22;6742;48.036;15.780;2022-10-16T06:06:38;12.60;99.90
13346;DHT22;6742;48.036;15.780;2022-10-16T06:09:09;12.60;99.90
13346;DHT22;6742;48.036;15.780;2022-10-16T06:11:36;12.60;99.90
13346;DHT22;6742;48.036;15.780;2022-10-16T06:14:03;12.60;99.90
13346;DHT22;6742;48.036;15.780;2022-10-16T06:16:35;12.60;99.90
13346;DHT22;6742;48.036;15.780;2022-10-16T06:19:03;12.70;99.90
13346;DHT22;6742;48.036;15.780;2022-10-16T06:21:31;12.90;99.90
13346;DHT22;6742;48.036;15.780;2022-10-16T06:23:59;13.20;99.90
13346;DHT22;6742;48.036;15.780;2022-10-16T06:26:27;13.70;99.90
13346;DHT22;6742;48.036;15.780;2022-10-16T06:28:55;13.90;99.90
13346;DHT22;6742;48.036;15.780;2022-10-16T06:31:23;14.20;99.90
13346;DHT22;6742;48.036;15.780;2022-10-16T06:33:54;14.40;99.90
13346;DHT22;6742;48.036;15.780;2022-10-16T06:36:25;14.80;99.90
13346;DHT22;6742;48.036;15.780;2022-10-16T06:38:52;14.90;99.90
13346;DHT22;6742;48.036;15.780;2022-10-16T06:41:20;14.90;99.90
13346;DHT22;6742;48.036;15.780;2022-10-16T06:43:47;15.00;99.90
13346;DHT22;6742;48.036;15.780;2022-10-16T06:46:16;15.20;99.90
13346;DHT22;6742;48.036;15.780;2022-10-16T06:48:43;15.40;99.90
13346;DHT22;6742;48.036;15.780;2022-10-16T06:51:13;15.90;99.90
13346;DHT22;6742;48.036;15.780;2022-10-16T06:53:44;16.40;99.90
13346;DHT22;6742;48.036;15.780;2022-10-16T06:56:13;16.90;99.90
13346;DHT22;6742;48.036;15.780;2022-10-16T06:58:41;17.40;99.90
13346;DHT22;6742;48.036;15.780;2022-10-16T07:01:08;17.80;99.90
13346;DHT22;6742;48.036;15.780;2022-10-16T07:03:36;18.30;99.90
13346;DHT22;6742;48.036;15.780;2022-10-16T07:06:04;18.60;99.90
13346;DHT22;6742;48.036;15.780;2022-10-16T07:08:38;18.90;99.90
13346;DHT22;6742;48.036;15.780;2022-10-16T07:11:07;19.10;99.90
13346;DHT22;6742;48.036;15.780;2022-10-16T07:13:35;19.40;99.90
13346;DHT22;6742;48.036;15.780;2022-10-16T07:16:04;19.60;99.90
13346;DHT22;6742;48.036;15.780;2022-10-16T07:18:32;19.80;99.90
13346;DHT22;6742;48.036;15.780;2022-10-16T07:21:04;19.90;99.90
13346;DHT22;6742;48.036;15.780;2022-10-16T07:23:34;20.10;99.90
13346;DHT22;6742;48.036;15.780;2022-10-16T07:26:03;20.30;99.90
13346;DHT22;6742;48.036;15.780;2022-10-16T07:28:30;20.50;99.90
13346;DHT22;6742;48.036;15.780;2022-10-16T07:31:01;20.70;99.90
13346;DHT22;6742;48.036;15.780;2022-10-16T07:33:28;20.80;99.90
13346;DHT22;6742;48.036;15.780;2022-10-16T07:35:55;20.90;99.90
13346;DHT22;6742;48.036;15.780;2022-10-16T07:38:23;21.10;99.90
13346;DHT22;6742;48.036;15.780;2022-10-16T07:40:56;21.10;99.90
13346;DHT22;6742;48.036;15.780;2022-10-16T07:43:26;21.20;99.90
13346;DHT22;6742;48.036;15.780;2022-10-16T07:45:53;21.30;99.90
13346;DHT22;6742;48.036;15.780;2022-10-16T07:48:22;21.50;99.90
13346;DHT22;6742;48.036;15.780;2022-10-16T07:50:49;21.70;99.90
13346;DHT22;6742;48.036;15.780;2022-10-16T07:53:16;21.60;99.90
13346;DHT22;6742;48.036;15.780;2022-10-16T07:55:43;21.60;99.90
13346;DHT22;6742;48.036;15.780;2022-10-16T07:58:10;21.70;99.90
13346;DHT22;6742;48.036;15.780;2022-10-16T08:00:38;21.80;99.90
13346;DHT22;6742;48.036;15.780;2022-10-16T08:03:05;21.90;99.90
13346;DHT22;6742;48.036;15.780;2022-10-16T08:05:33;22.00;99.90
13346;DHT22;6742;48.036;15.780;2022-10-16T08:08:01;22.20;99.90
13346;DHT22;6742;48.036;15.780;2022-10-16T08:10:28;22.20;99.90
13346;DHT22;6742;48.036;15.780;2022-10-16T08:12:57;22.30;99.90
13346;DHT22;6742;48.036;15.780;2022-10-16T08:15:30;22.20;99.90
13346;DHT22;6742;48.036;15.780;2022-10-16T08:18:00;22.20;99.90
13346;DHT22;6742;48.036;15.780;2022-10-16T08:20:28;22.40;99.90
13346;DHT22;6742;48.036;15.780;2022-10-16T08:22:55;22.40;99.90
13346;DHT22;6742;48.036;15.780;2022-10-16T08:25:23;22.40;99.90
13346;DHT22;6742;48.036;15.780;2022-10-16T08:27:53;22.40;99.90
13346;DHT22;6742;48.036;15.780;2022-10-16T08:30:21;22.50;99.90
13346;DHT22;6742;48.036;15.780;2022-10-16T08:32:48;22.60;99.90
13346;DHT22;6742;48.036;15.780;2022-10-16T08:35:17;22.50;99.90
13346;DHT22;6742;48.036;15.780;2022-10-16T08:37:44;22.50;99.90
13346;DHT22;6742;48.036;15.780;2022-10-16T08:40:17;22.60;99.90
13346;DHT22;6742;48.036;15.780;2022-10-16T08:43:10;22.60;99.90
13346;DHT22;6742;48.036;15.780;2022-10-16T08:45:49;22.60;99.90
13346;DHT22;6742;48.036;15.780;2022-10-16T08:48:27;22.60;99.90
13346;DHT22;6742;48.036;15.780;2022-10-16T08:50:57;22.60;99.90
13346;DHT22;6742;48.036;15.780;2022-10-16T08:53:27;22.70;99.90
13346;DHT22;6742;48.036;15.780;2022-10-16T08:55:55;22.70;99.90
13346;DHT22;6742;48.036;15.780;2022-10-16T08:58:26;22.80;99.90
13346;DHT22;6742;48.036;15.780;2022-10-16T09:00:55;22.80;99.90
13346;DHT22;6742;48.036;15.780;2022-10-16T09:03:31;22.90;99.90
13346;DHT22;6742;48.036;15.780;2022-10-16T09:06:28;22.90;99.90
13346;DHT22;6742;48.036;15.780;2022-10-16T09:09:16;23.00;99.90
13346;DHT22;6742;48.036;15.780;2022-10-16T09:11:50;23.10;99.90
13346;DHT22;6742;48.036;15.780;2022-10-16T09:14:33;23.10;99.90
13346;DHT22;6742;48.036;15.780;2022-10-16T09:17:11;23.10;99.90
13346;DHT22;6742;48.036;15.780;2022-10-16T09:19:46;23.10;99.90
13346;DHT22;6742;48.036;15.780;2022-10-16T09:22:17;23.10;99.90
13346;DHT22;6742;48.036;15.780;2022-10-16T09:24:45;23.20;99.90
13346;DHT22;6742;48.036;15.780;2022-10-16T09:27:14;23.20;99.90
13346;DHT22;6742;48.036;15.780;2022-10-16T09:29:41;23.00;99.90
13346;DHT22;6742;48.036;15.780;2022-10-16T09:32:12;22.90;99.90
13346;DHT22;6742;48.036;15.780;2022-10-16T09:34:43;22.90;99.90
13346;DHT22;6742;48.036;15.780;2022-10-16T09:37:13;22.90;99.90
13346;DHT22;6742;48.036;15.780;2022-10-16T09:39:50;23.00;99.90
13346;DHT22;6742;48.036;15.780;2022-10-16T09:42:18;22.90;99.90
13346;DHT22;6742;48.036;15.780;2022-10-16T09:44:47;22.90;99.90
13346;DHT22;6742;48.036;15.780;2022-10-16T09:47:16;22.90;99.90
13346;DHT22;6742;48.036;15.780;2022-10-16T09:49:53;22.90;99.90
13346;DHT22;6742;48.036;15.780;2022-10-16T09:52:21;23.20;99.90
13346;DHT22;6742;48.036;15.780;2022-10-16T09:54:51;23.40;99.90
13346;DHT22;6742;48.036;15.780;2022-10-16T09:57:18;23.70;99.90
13346;DHT22;6742;48.036;15.780;2022-10-16T09:59:46;23.80;99.90
13346;DHT22;6742;48.036;15.780;2022-10-16T10:02:15;24.00;99.90
13346;DHT22;6742;48.036;15.780;2022-10-16T10:04:49;23.90;99.90
13346;DHT22;6742;48.036;15.780;2022-10-16T10:07:18;23.90;99.90
13346;DHT22;6742;48.036;15.780;2022-10-16T10:09:47;23.90;99.90
13346;DHT22;6742;48.036;15.780;2022-10-16T10:12:21;23.90;99.90
13346;DHT22;6742;48.036;15.780;2022-10-16T10:14:50;24.00;99.90
13346;DHT22;6742;48.036;15.780;2022-10-16T10:17:20;24.00;99.90
13346;DHT22;6742;48.036;15.780;2022-10-16T10:19:50;24.00;99.90
13346;DHT22;6742;48.036;15.780;2022-10-16T10:22:29;24.10;99.90
13346;DHT22;6742;48.036;15.780;2022-10-16T10:28:24;24.10;99.90
13346;DHT22;6742;48.036;15.780;2022-10-16T10:30:58;24.10;99.90
13346;DHT22;6742;48.036;15.780;2022-10-16T10:33:31;24.20;99.90
13346;DHT22;6742;48.036;15.780;2022-10-16T10:36:16;24.20;99.90
13346;DHT22;6742;48.036;15.780;2022-10-16T10:38:50;24.10;99.90
13346;DHT22;6742;48.036;15.780;2022-10-16T10:44:41;23.90;99.90
13346;DHT22;6742;48.036;15.780;2022-10-16T10:47:18;23.70;99.90
13346;DHT22;6742;48.036;15.780;2022-10-16T10:49:57;23.60;99.90
13346;DHT22;6742;48.036;15.780;2022-10-16T10:52:41;23.50;99.90
13346;DHT22;6742;48.036;15.780;2022-10-16T10:55:16;23.40;99.90
13346;DHT22;6742;48.036;15.780;2022-10-16T10:57:59;23.40;99.90
13346;DHT22;6742;48.036;15.780;2022-10-16T11:00:42;23.40;99.90
13346;DHT22;6742;48.036;15.780;2022-10-16T11:03:26;23.30;99.90
13346;DHT22;6742;48.036;15.780;2022-10-16T11:05:58;23.20;99.90
13346;DHT22;6742;48.036;15.780;2022-10-16T11:08:29;23.00;99.90
13346;DHT22;6742;48.036;15.780;2022-10-16T11:11:01;23.00;99.90
13346;DHT22;6742;48.036;15.780;2022-10-16T11:13:32;22.90;99.90
13346;DHT22;6742;48.036;15.780;2022-10-16T11:16:06;22.90;99.90
13346;DHT22;6742;48.036;15.780;2022-10-16T11:18:46;22.90;99.90
13346;DHT22;6742;48.036;15.780;2022-10-16T11:21:18;22.80;99.90
13346;DHT22;6742;48.036;15.780;2022-10-16T11:23:53;22.80;99.90
13346;DHT22;6742;48.036;15.780;2022-10-16T11:26:24;22.80;99.90
13346;DHT22;6742;48.036;15.780;2022-10-16T11:28:54;22.70;99.90
13346;DHT22;6742;48.036;15.780;2022-10-16T11:31:28;22.70;99.90
13346;DHT22;6742;48.036;15.780;2022-10-16T11:34:02;22.60;99.90
13346;DHT22;6742;48.036;15.780;2022-10-16T11:36:38;22.60;99.90
13346;DHT22;6742;48.036;15.780;2022-10-16T11:39:17;22.60;99.90
13346;DHT22;6742;48.036;15.780;2022-10-16T11:41:48;22.60;99.90
13346;DHT22;6742;48.036;15.780;2022-10-16T11:44:36;22.50;99.90
13346;DHT22;6742;48.036;15.780;2022-10-16T11:47:14;22.40;99.90
13346;DHT22;6742;48.036;15.780;2022-10-16T11:49:46;22.40;99.90
13346;DHT22;6742;48.036;15.780;2022-10-16T11:52:19;22.40;99.90
13346;DHT22;6742;48.036;15.780;2022-10-16T11:54:51;22.40;99.90
13346;DHT22;6742;48.036;15.780;2022-10-16T11:57:22;22.50;99.90
13346;DHT22;6742;48.036;15.780;2022-10-16T11:59:53;22.60;99.90
13346;DHT22;6742;48.036;15.780;2022-10-16T12:02:40;22.60;99.90
13346;DHT22;6742;48.036;15.780;2022-10-16T12:05:21;22.60;99.90
13346;DHT22;6742;48.036;15.780;2022-10-16T12:07:55;22.50;99.90
13346;DHT22;6742;48.036;15.780;2022-10-16T12:10:28;22.50;99.90
13346;DHT22;6742;48.036;15.780;2022-10-16T12:12:57;22.60;99.90
13346;DHT22;6742;48.036;15.780;2022-10-16T12:15:26;22.60;99.90
13346;DHT22;6742;48.036;15.780;2022-10-16T12:17:56;22.60;99.90
13346;DHT22;6742;48.036;15.780;2022-10-16T12:20:28;22.50;99.90
13346;DHT22;6742;48.036;15.780;2022-10-16T12:22:59;22.40;99.90
13346;DHT22;6742;48.036;15.780;2022-10-16T12:25:30;22.30;99.90
13346;DHT22;6742;48.036;15.780;2022-10-16T12:28:00;22.20;99.90
13346;DHT22;6742;48.036;15.780;2022-10-16T12:30:29;22.20;99.90
13346;DHT22;6742;48.036;15.780;2022-10-16T12:33:00;22.10;99.90
13346;DHT22;6742;48.036;15.780;2022-10-16T12:35:30;22.20;99.90
13346;DHT22;6742;48.036;15.780;2022-10-16T12:38:06;22.10;99.90
13346;DHT22;6742;48.036;15.780;2022-10-16T12:40:36;22.20;99.90
13346;DHT22;6742;48.036;15.780;2022-10-16T12:43:24;22.20;99.90
13346;DHT22;6742;48.036;15.780;2022-10-16T12:46:03;22.20;99.90
13346;DHT22;6742;48.036;15.780;2022-10-16T12:48:32;22.20;99.90
13346;DHT22;6742;48.036;15.780;2022-10-16T12:51:10;22.20;99.90
13346;DHT22;6742;48.036;15.780;2022-10-16T12:53:38;22.20;99.90
13346;DHT22;6742;48.036;15.780;2022-10-16T12:56:22;22.20;99.90
13346;DHT22;6742;48.036;15.780;2022-10-16T12:59:03;22.10;99.90
13346;DHT22;6742;48.036;15.780;2022-10-16T13:01:41;21.90;99.90
13346;DHT22;6742;48.036;15.780;2022-10-16T13:04:31;21.80;99.90
13346;DHT22;6742;48.036;15.780;2022-10-16T13:07:17;21.70;99.90
13346;DHT22;6742;48.036;15.780;2022-10-16T13:09:55;21.60;99.90
13346;DHT22;6742;48.036;15.780;2022-10-16T13:12:54;21.60;99.90
13346;DHT22;6742;48.036;15.780;2022-10-16T13:15:40;21.60;99.90
13346;DHT22;6742;48.036;15.780;2022-10-16T13:18:14;21.40;99.90
13346;DHT22;6742;48.036;15.780;2022-10-16T13:20:56;21.30;99.90
13346;DHT22;6742;48.036;15.780;2022-10-16T13:23:27;21.20;99.90
13346;DHT22;6742;48.036;15.780;2022-10-16T13:26:09;21.10;99.90
13346;DHT22;6742;48.036;15.780;2022-10-16T13:28:39;21.00;99.90
13346;DHT22;6742;48.036;15.780;2022-10-16T13:31:14;20.90;99.90
13346;DHT22;6742;48.036;15.780;2022-10-16T13:33:46;20.80;99.90
13346;DHT22;6742;48.036;15.780;2022-10-16T13:36:24;20.70;99.90
13346;DHT22;6742;48.036;15.780;2022-10-16T13:39:01;20.60;99.90
13346;DHT22;6742;48.036;15.780;2022-10-16T13:41:31;20.60;99.90
13346;DHT22;6742;48.036;15.780;2022-10-16T13:43:58;20.60;99.90
13346;DHT22;6742;48.036;15.780;2022-10-16T13:46:25;20.60;99.90
13346;DHT22;6742;48.036;15.780;2022-10-16T13:48:59;20.50;99.90
13346;DHT22;6742;48.036;15.780;2022-10-16T13:51:28;20.50;99.90
13346;DHT22;6742;48.036;15.780;2022-10-16T13:53:56;20.50;99.90
13346;DHT22;6742;48.036;15.780;2022-10-16T13:56:26;20.40;99.90
13346;DHT22;6742;48.036;15.780;2022-10-16T13:59:00;20.40;99.90
13346;DHT22;6742;48.036;15.780;2022-10-16T14:01:29;20.30;99.90
13346;DHT22;6742;48.036;15.780;2022-10-16T14:04:02;20.20;99.90
13346;DHT22;6742;48.036;15.780;2022-10-16T14:06:32;20.10;99.90
13346;DHT22;6742;48.036;15.780;2022-10-16T14:09:02;20.10;99.90
13346;DHT22;6742;48.036;15.780;2022-10-16T14:11:38;20.00;99.90
13346;DHT22;6742;48.036;15.780;2022-10-16T14:14:11;19.90;99.90
13346;DHT22;6742;48.036;15.780;2022-10-16T14:16:41;19.90;99.90
13346;DHT22;6742;48.036;15.780;2022-10-16T14:19:21;19.90;99.90
13346;DHT22;6742;48.036;15.780;2022-10-16T14:21:51;19.80;99.90
13346;DHT22;6742;48.036;15.780;2022-10-16T14:24:26;19.80;99.90
13346;DHT22;6742;48.036;15.780;2022-10-16T14:26:54;19.70;99.90
13346;DHT22;6742;48.036;15.780;2022-10-16T14:29:23;19.70;99.90
13346;DHT22;6742;48.036;15.780;2022-10-16T14:31:58;19.70;99.90
13346;DHT22;6742;48.036;15.780;2022-10-16T14:34:27;19.70;99.90
13346;DHT22;6742;48.036;15.780;2022-10-16T14:36:59;19.60;99.90
13346;DHT22;6742;48.036;15.780;2022-10-16T14:39:28;19.60;99.90
13346;DHT22;6742;48.036;15.780;2022-10-16T14:41:57;19.60;99.90
13346;DHT22;6742;48.036;15.780;2022-10-16T14:44:28;19.50;99.90
13346;DHT22;6742;48.036;15.780;2022-10-16T14:46:56;19.50;99.90
13346;DHT22;6742;48.036;15.780;2022-10-16T14:49:25;19.40;99.90
13346;DHT22;6742;48.036;15.780;2022-10-16T14:51:53;19.40;99.90
13346;DHT22;6742;48.036;15.780;2022-10-16T14:54:22;19.40;99.90
13346;DHT22;6742;48.036;15.780;2022-10-16T14:56:51;19.30;99.90
13346;DHT22;6742;48.036;15.780;2022-10-16T14:59:24;19.30;99.90
13346;DHT22;6742;48.036;15.780;2022-10-16T15:01:52;19.20;99.90
13346;DHT22;6742;48.036;15.780;2022-10-16T15:04:19;19.20;99.90
13346;DHT22;6742;48.036;15.780;2022-10-16T15:06:46;19.10;99.90
13346;DHT22;6742;48.036;15.780;2022-10-16T15:09:16;19.10;99.90
13346;DHT22;6742;48.036;15.780;2022-10-16T15:11:44;19.00;99.90
13346;DHT22;6742;48.036;15.780;2022-10-16T15:14:12;19.00;99.90
13346;DHT22;6742;48.036;15.780;2022-10-16T15:16:39;19.00;99.90
13346;DHT22;6742;48.036;15.780;2022-10-16T15:19:06;18.90;99.90
13346;DHT22;6742;48.036;15.780;2022-10-16T15:21:33;18.80;99.90
13346;DHT22;6742;48.036;15.780;2022-10-16T15:24:00;18.90;99.90
13346;DHT22;6742;48.036;15.780;2022-10-16T15:26:28;18.90;99.90
13346;DHT22;6742;48.036;15.780;2022-10-16T15:28:57;18.80;99.90
13346;DHT22;6742;48.036;15.780;2022-10-16T15:31:24;18.80;99.90
13346;DHT22;6742;48.036;15.780;2022-10-16T15:33:52;18.80;99.90
13346;DHT22;6742;48.036;15.780;2022-10-16T15:36:27;18.80;99.90
13346;DHT22;6742;48.036;15.780;2022-10-16T15:38:57;18.70;99.90
13346;DHT22;6742;48.036;15.780;2022-10-16T15:41:24;18.70;99.90
13346;DHT22;6742;48.036;15.780;2022-10-16T15:43:51;18.60;99.90
13346;DHT22;6742;48.036;15.780;2022-10-16T15:46:21;18.60;99.90
13346;DHT22;6742;48.036;15.780;2022-10-16T15:48:49;18.50;99.90
13346;DHT22;6742;48.036;15.780;2022-10-16T15:51:17;18.50;99.90
13346;DHT22;6742;48.036;15.780;2022-10-16T15:53:44;18.50;99.90
13346;DHT22;6742;48.036;15.780;2022-10-16T15:56:13;18.50;99.90
13346;DHT22;6742;48.036;15.780;2022-10-16T15:58:40;18.40;99.90